Time;durP1;ratioP1;P1;durP2;ratioP2;P2;SDS_P1;SDS_P2;PMS_P1;PMS_P2;Temp;Humidity;BMP_temperature;BMP_pressure;BME280_temperature;BME280_humidity;BME280_pressure;Samples;Min_cycle;Max_cycle;Signal;HPM_P1;HPM_P2
2023/01/31 00:01:16;;;;;;;12.68;2.53;;;5.40;99.90;;;;;;5129260;27;20031;-82
2023/01/31 00:03:42;;;;;;;22.77;2.95;;;4.10;99.90;;;;;;5109345;27;20390;-81
2023/01/31 00:06:26;;;;;;;29.00;3.50;;;4.10;99.90;;;;;;5091928;27;20075;-82
2023/01/31 00:08:52;;;;;;;;;;;4.00;99.90;;;;;;5092659;27;20054;-83
2023/01/31 00:11:20;;;;;;;13.38;2.30;;;5.40;99.90;;;;;;5107243;27;19919;-81
2023/01/31 00:13:46;;;;;;;25.52;2.80;;;4.10;99.90;;;;;;5108629;27;20040;-81
2023/01/31 00:16:13;;;;;;;21.58;2.80;;;4.00;99.90;;;;;;5107658;27;20061;-82
2023/01/31 00:18:39;;;;;;;23.55;3.55;;;4.20;99.90;;;;;;5108147;27;20047;-81
2023/01/31 00:21:14;;;;;;;25.77;3.55;;;2.90;99.90;;;;;;5107694;27;20043;-81
2023/01/31 00:23:41;;;;;;;27.35;3.80;;;3.90;99.90;;;;;;5106894;27;20510;-81
2023/01/31 00:26:13;;;;;;;23.98;3.00;;;3.90;99.90;;;;;;5126307;27;20061;-82
2023/01/31 00:28:39;;;;;;;23.77;2.92;;;3.90;99.90;;;;;;5089662;27;20042;-82
2023/01/31 00:31:05;;;;;;;23.40;3.00;;;3.90;99.90;;;;;;5091214;27;20043;-81
2023/01/31 00:33:33;;;;;;;21.58;2.75;;;4.70;99.90;;;;;;5107087;27;20045;-81
2023/01/31 00:36:01;;;;;;;19.98;3.08;;;4.10;99.90;;;;;;5108298;27;20423;-81
2023/01/31 00:38:27;;;;;;;18.13;3.00;;;3.90;99.90;;;;;;5107498;27;20035;-82
2023/01/31 00:40:53;;;;;;;28.95;5.30;;;4.00;99.90;;;;;;5073235;27;20092;-81
2023/01/31 00:43:19;;;;;;;17.73;2.08;;;5.30;99.90;;;;;;5090535;28;20096;-81
2023/01/31 00:45:45;;;;;;;20.27;3.78;;;5.00;99.90;;;;;;5090019;28;20047;-81
2023/01/31 00:48:11;;;;;;;18.70;3.17;;;4.80;99.90;;;;;;5108299;27;20035;-81
2023/01/31 00:50:36;;;;;;;25.88;2.90;;;5.10;99.90;;;;;;5106676;27;20400;-82
2023/01/31 00:53:03;;;;;;;30.27;3.88;;;5.30;99.90;;;;;;5091012;28;20043;-81
2023/01/31 00:55:28;;;;;;;31.05;4.07;;;4.00;99.90;;;;;;5090908;27;20386;-81
2023/01/31 00:57:54;;;;;;;16.52;2.63;;;3.90;99.90;;;;;;5125825;27;20043;-82
2023/01/31 01:00:20;;;;;;;19.70;2.67;;;3.90;99.90;;;;;;5107834;28;20039;-81
2023/01/31 01:02:45;;;;;;;26.20;2.75;;;3.90;99.90;;;;;;5125072;28;20047;-81
2023/01/31 01:05:11;;;;;;;18.95;2.22;;;4.90;99.90;;;;;;5076425;27;20286;-81
2023/01/31 01:07:37;;;;;;;19.33;2.72;;;4.20;99.90;;;;;;5110784;27;20035;-82
2023/01/31 01:10:04;;;;;;;19.67;1.92;;;3.80;99.90;;;;;;5095164;27;20053;-81
2023/01/31 01:12:29;;;;;;;29.08;3.08;;;3.80;99.90;;;;;;5111349;27;20039;-81
2023/01/31 01:14:55;;;;;;;8.82;1.88;;;3.80;99.90;;;;;;5111751;27;20059;-81
2023/01/31 01:17:21;;;;;;;11.55;2.00;;;3.80;99.90;;;;;;5111534;27;20482;-81
2023/01/31 01:19:47;;;;;;;22.17;3.42;;;3.80;99.90;;;;;;5111233;27;20122;-81
2023/01/31 01:22:15;;;;;;;19.55;3.03;;;5.10;99.90;;;;;;5111848;27;20089;-81
2023/01/31 01:24:44;;;;;;;15.88;2.38;;;3.70;99.90;;;;;;5093748;27;20096;-81
2023/01/31 01:27:11;;;;;;;17.48;2.88;;;4.90;99.90;;;;;;5094696;27;20035;-81
2023/01/31 01:29:37;;;;;;;25.30;3.00;;;4.90;99.90;;;;;;5076979;27;20450;-81
2023/01/31 01:32:04;;;;;;;15.15;3.00;;;3.60;99.90;;;;;;5111074;27;20070;-81
2023/01/31 01:34:30;;;;;;;17.63;2.40;;;3.60;99.90;;;;;;5111175;27;20353;-82
2023/01/31 01:36:55;;;;;;;17.67;2.45;;;3.50;99.90;;;;;;5093033;27;20134;-81
2023/01/31 01:39:22;;;;;;;28.27;4.35;;;3.50;99.90;;;;;;5094461;27;20051;-82
2023/01/31 01:41:49;;;;;;;18.67;2.60;;;3.50;99.90;;;;;;5076197;27;20053;-81
2023/01/31 01:44:54;;;;;;;23.52;2.88;;;3.60;99.90;;;;;;5094926;27;20117;-81
2023/01/31 01:47:38;;;;;;;21.13;2.83;;;3.60;99.90;;;;;;5111303;27;20501;-82
2023/01/31 01:50:11;;;;;;;35.30;6.18;;;3.60;99.90;;;;;;5093015;27;20043;-81
2023/01/31 01:53:07;;;;;;;17.15;4.40;;;3.60;99.90;;;;;;5111485;27;20057;-81
2023/01/31 01:55:43;;;;;;;27.88;2.97;;;3.70;99.90;;;;;;5085715;27;20047;-81
2023/01/31 01:58:31;;;;;;;21.20;4.22;;;3.70;99.90;;;;;;5109852;27;20043;-82
2023/01/31 02:00:57;;;;;;;11.55;2.08;;;3.80;99.90;;;;;;5094625;27;20173;-81
2023/01/31 02:03:23;;;;;;;17.08;2.63;;;3.80;99.90;;;;;;5109353;27;20092;-81
2023/01/31 02:05:51;;;;;;;23.45;2.78;;;3.80;99.90;;;;;;5093711;27;20039;-81
2023/01/31 02:08:20;;;;;;;18.80;2.67;;;4.80;99.90;;;;;;5110277;27;20039;-81
2023/01/31 02:11:08;;;;;;;15.55;2.22;;;5.20;99.90;;;;;;5110099;27;20054;-81
2023/01/31 02:13:36;;;;;;;25.40;2.80;;;4.00;99.90;;;;;;5111009;27;20047;-81
2023/01/31 02:16:02;;;;;;;19.83;2.65;;;4.00;99.90;;;;;;5091598;27;20075;-81
2023/01/31 02:18:28;;;;;;;17.55;2.20;;;4.00;99.90;;;;;;5093812;27;20147;-81
2023/01/31 02:21:16;;;;;;;20.00;2.13;;;4.20;99.90;;;;;;5092662;27;20044;-81
2023/01/31 02:24:02;;;;;;;16.50;2.10;;;4.00;99.90;;;;;;5109400;27;20050;-80
2023/01/31 02:26:59;;;;;;;19.98;2.78;;;4.80;99.90;;;;;;5129080;27;20050;-80
2023/01/31 02:29:36;;;;;;;15.15;1.85;;;4.10;99.90;;;;;;5109743;27;20035;-80
2023/01/31 02:32:23;;;;;;;18.10;1.85;;;4.10;99.90;;;;;;5092705;27;20517;-80
2023/01/31 02:35:22;;;;;;;27.52;3.03;;;4.20;99.90;;;;;;5110061;27;20054;-81
2023/01/31 02:37:57;;;;;;;16.15;2.33;;;4.20;99.90;;;;;;5108963;27;20047;-80
2023/01/31 02:40:35;;;;;;;13.68;1.98;;;4.30;99.90;;;;;;5109717;27;20058;-81
2023/01/31 02:46:35;;;;;;;21.85;2.55;;;4.30;99.90;;;;;;5109504;27;20138;-81
2023/01/31 02:49:35;;;;;;;23.67;2.47;;;4.40;99.90;;;;;;5127798;27;20497;-81
2023/01/31 02:52:27;;;;;;;20.83;3.00;;;4.50;99.90;;;;;;5110353;27;20051;-81
2023/01/31 02:58:02;;;;;;;14.98;2.17;;;4.50;99.90;;;;;;5109106;27;20048;-81
2023/01/31 03:00:32;;;;;;;18.42;2.40;;;5.20;99.90;;;;;;5092996;27;20089;-81
2023/01/31 03:02:58;;;;;;;16.52;1.92;;;4.60;99.90;;;;;;5127602;27;20043;-81
2023/01/31 03:05:24;;;;;;;18.05;2.22;;;4.60;99.90;;;;;;5109864;27;20039;-81
2023/01/31 03:07:54;;;;;;;23.20;2.72;;;5.80;99.90;;;;;;5108984;27;20047;-81
2023/01/31 03:10:49;;;;;;;21.05;2.15;;;4.60;99.90;;;;;;5109215;27;20130;-81
2023/01/31 03:13:38;;;;;;;16.33;1.63;;;4.60;99.90;;;;;;5092740;27;20540;-81
2023/01/31 03:19:19;;;;;;;13.50;1.67;;;5.10;99.90;;;;;;5108862;27;20104;-81
2023/01/31 03:21:52;;;;;;;19.88;2.33;;;4.50;99.90;;;;;;5112252;27;20084;-81
2023/01/31 03:24:20;;;;;;;17.90;2.08;;;5.20;99.90;;;;;;5112207;27;20051;-81
2023/01/31 03:26:46;;;;;;;15.77;1.63;;;4.50;99.90;;;;;;5113041;27;20541;-81
2023/01/31 03:29:15;;;;;;;16.77;2.15;;;4.50;99.90;;;;;;5111821;27;20402;-81
2023/01/31 03:31:51;;;;;;;13.10;2.25;;;5.80;99.90;;;;;;5110415;27;20108;-81
2023/01/31 03:34:18;;;;;;;19.38;2.00;;;4.50;99.90;;;;;;5092589;27;20054;-81
2023/01/31 03:37:12;;;;;;;16.25;2.45;;;4.40;99.90;;;;;;5126566;27;20051;-81
2023/01/31 03:40:04;;;;;;;17.50;1.58;;;4.40;99.90;;;;;;5092243;27;20055;-81
2023/01/31 03:42:40;;;;;;;22.48;3.42;;;4.40;99.90;;;;;;5103638;27;20050;-81
2023/01/31 03:45:10;;;;;;;18.05;2.22;;;4.40;99.90;;;;;;5108616;27;20526;-82
2023/01/31 03:47:43;;;;;;;19.50;2.63;;;4.40;99.90;;;;;;5091781;27;20086;-81
2023/01/31 03:50:18;;;;;;;21.10;3.03;;;4.40;99.90;;;;;;5091430;27;20043;-81
2023/01/31 03:53:06;;;;;;;15.18;2.03;;;4.40;99.90;;;;;;5109010;27;20197;-81
2023/01/31 03:55:58;;;;;;;19.98;2.55;;;4.50;99.90;;;;;;5091462;27;20054;-81
2023/01/31 03:58:35;;;;;;;23.92;2.97;;;4.50;99.90;;;;;;5082452;27;20471;-80
2023/01/31 04:01:06;;;;;;;11.40;1.92;;;4.50;99.90;;;;;;5092034;27;20116;-82
2023/01/31 04:03:38;;;;;;;20.17;2.03;;;5.70;99.90;;;;;;5090673;27;20545;-81
2023/01/31 04:06:04;;;;;;;10.25;1.52;;;5.30;99.90;;;;;;5091214;27;20126;-81
2023/01/31 04:08:32;;;;;;;18.25;2.80;;;4.70;99.90;;;;;;5091070;27;20089;-81
2023/01/31 04:10:59;;;;;;;20.75;2.30;;;4.70;99.90;;;;;;5106854;27;20047;-81
2023/01/31 04:13:25;;;;;;;13.43;2.75;;;4.80;99.90;;;;;;5108469;27;20160;-80
2023/01/31 04:15:50;;;;;;;17.77;2.60;;;4.80;99.90;;;;;;5090549;27;20534;-81
2023/01/31 04:18:16;;;;;;;18.63;2.97;;;5.70;99.90;;;;;;5108059;27;20046;-81
2023/01/31 04:20:42;;;;;;;20.17;2.50;;;5.90;99.90;;;;;;5089926;27;20047;-82
2023/01/31 04:23:08;;;;;;;22.85;2.58;;;5.70;99.90;;;;;;5090848;27;20143;-81
2023/01/31 04:25:33;;;;;;;22.70;2.63;;;5.90;99.90;;;;;;5107560;27;20093;-81
2023/01/31 04:27:59;;;;;;;16.30;2.65;;;5.00;99.90;;;;;;5089823;27;20100;-81
2023/01/31 04:30:25;;;;;;;18.65;2.75;;;5.00;99.90;;;;;;5090675;27;20051;-81
2023/01/31 04:32:51;;;;;;;19.50;2.40;;;5.00;99.90;;;;;;5072550;27;20134;-81
2023/01/31 04:35:16;;;;;;;23.95;4.63;;;5.10;99.90;;;;;;5090818;27;20046;-81
2023/01/31 04:37:42;;;;;;;23.27;2.65;;;5.10;99.90;;;;;;5072896;27;20039;-81
2023/01/31 04:40:08;;;;;;;20.63;2.15;;;5.10;99.90;;;;;;5107021;27;20043;-81
2023/01/31 04:42:34;;;;;;;26.63;3.60;;;5.20;99.90;;;;;;5073228;27;20402;-82
2023/01/31 04:45:00;;;;;;;24.50;2.63;;;5.60;99.90;;;;;;5106542;28;20045;-81
2023/01/31 04:47:26;;;;;;;18.65;3.75;;;5.30;99.90;;;;;;5107267;27;20046;-83
2023/01/31 04:49:52;;;;;;;19.20;3.25;;;5.30;99.90;;;;;;5105887;28;20054;-82
2023/01/31 04:52:17;;;;;;;20.00;3.97;;;5.30;99.90;;;;;;5108044;28;20135;-80
2023/01/31 04:54:43;;;;;;;23.10;2.53;;;5.40;99.90;;;;;;5106732;28;20470;-82
2023/01/31 04:57:09;;;;;;;28.75;3.83;;;6.20;99.90;;;;;;5090300;28;20345;-80
2023/01/31 04:59:35;;;;;;;24.58;3.65;;;6.40;99.90;;;;;;5057040;27;20043;-81
2023/01/31 05:02:00;;;;;;;18.33;2.40;;;5.70;99.90;;;;;;5106499;28;20130;-82
2023/01/31 05:04:26;;;;;;;23.58;3.85;;;5.50;99.90;;;;;;5107074;28;20041;-82
2023/01/31 05:06:52;;;;;;;24.35;3.00;;;5.50;99.90;;;;;;5106239;28;20043;-82
2023/01/31 05:09:18;;;;;;;24.30;3.83;;;5.50;99.90;;;;;;5126379;28;20118;-80
2023/01/31 05:11:44;;;;;;;24.83;3.35;;;5.60;99.90;;;;;;5125038;28;20486;-81
2023/01/31 05:14:10;;;;;;;22.55;3.67;;;5.60;99.90;;;;;;5107169;28;20472;-81
2023/01/31 05:16:35;;;;;;;24.73;2.80;;;5.60;99.90;;;;;;5089741;28;20055;-81
2023/01/31 05:19:01;;;;;;;22.35;3.00;;;5.60;99.90;;;;;;5106892;28;20154;-80
2023/01/31 05:21:27;;;;;;;36.33;3.70;;;5.60;99.90;;;;;;5107199;28;20119;-81
2023/01/31 05:23:52;;;;;;;24.50;3.70;;;5.70;99.90;;;;;;5089231;28;20051;-81
2023/01/31 05:26:18;;;;;;;31.85;5.15;;;5.70;99.90;;;;;;5107588;28;20118;-81
2023/01/31 05:28:44;;;;;;;27.25;3.55;;;5.70;99.90;;;;;;5124765;28;20127;-81
2023/01/31 05:31:11;;;;;;;25.90;3.85;;;6.80;99.90;;;;;;5107321;28;20043;-81
2023/01/31 05:33:38;;;;;;;24.33;3.60;;;6.60;99.90;;;;;;5125402;28;20122;-83
2023/01/31 05:36:04;;;;;;;24.15;5.57;;;5.70;99.90;;;;;;5107010;28;20035;-81
2023/01/31 05:38:29;;;;;;;19.48;4.25;;;5.70;99.90;;;;;;5090155;28;20044;-82
2023/01/31 05:40:55;;;;;;;16.20;2.78;;;5.80;99.90;;;;;;5089190;28;20043;-82
2023/01/31 05:43:21;;;;;;;23.08;3.03;;;5.80;99.90;;;;;;5107299;28;20081;-82
2023/01/31 05:45:48;;;;;;;27.13;3.95;;;7.00;99.90;;;;;;5072414;28;20096;-83
2023/01/31 05:48:13;;;;;;;17.67;3.20;;;5.70;99.90;;;;;;5073550;28;20043;-82
2023/01/31 05:50:39;;;;;;;31.20;4.10;;;5.80;99.90;;;;;;5106294;28;20398;-82
2023/01/31 05:53:05;;;;;;;24.13;3.35;;;5.80;99.90;;;;;;5093575;27;20059;-81
2023/01/31 05:55:30;;;;;;;26.13;3.28;;;7.10;99.90;;;;;;5110830;27;20047;-82
2023/01/31 05:57:56;;;;;;;32.70;3.35;;;5.80;99.90;;;;;;5076297;27;20048;-82
2023/01/31 06:00:23;;;;;;;22.98;3.05;;;5.80;99.90;;;;;;5112061;27;20050;-80
2023/01/31 06:02:48;;;;;;;27.48;4.28;;;5.80;99.90;;;;;;5109760;27;20101;-81
2023/01/31 06:05:15;;;;;;;22.58;3.75;;;6.00;99.90;;;;;;5077144;27;20043;-81
2023/01/31 06:07:40;;;;;;;19.23;3.47;;;6.10;99.90;;;;;;5109692;27;20043;-81
2023/01/31 06:10:10;;;;;;;18.05;3.63;;;6.40;99.90;;;;;;5093278;27;20050;-81
2023/01/31 06:12:36;;;;;;;22.77;3.67;;;5.80;99.90;;;;;;5092328;27;20044;-82
2023/01/31 06:15:02;;;;;;;24.30;3.05;;;6.20;99.90;;;;;;5109918;27;20077;-81
2023/01/31 06:17:28;;;;;;;25.60;4.05;;;5.80;99.90;;;;;;5093876;27;20509;-81
2023/01/31 06:19:53;;;;;;;28.02;4.10;;;5.80;99.90;;;;;;5075321;27;20039;-81
2023/01/31 06:22:19;;;;;;;33.28;5.13;;;5.90;99.90;;;;;;5094051;27;20047;-82
2023/01/31 06:24:45;;;;;;;24.23;3.40;;;5.80;99.90;;;;;;5092654;27;20065;-83
2023/01/31 06:27:11;;;;;;;22.58;4.15;;;5.80;99.90;;;;;;5093050;27;20043;-81
2023/01/31 06:29:36;;;;;;;25.13;3.33;;;5.90;99.90;;;;;;5110652;27;20056;-87
2023/01/31 06:32:03;;;;;;;23.45;4.53;;;6.80;99.90;;;;;;5093032;27;20054;-82
2023/01/31 06:34:28;;;;;;;25.45;4.65;;;5.90;99.90;;;;;;5110270;27;20039;-85
2023/01/31 06:36:54;;;;;;;21.65;2.97;;;5.80;99.90;;;;;;5092030;27;20128;-83
2023/01/31 06:39:20;;;;;;;28.83;3.90;;;7.00;99.90;;;;;;5093169;27;20039;-83
2023/01/31 06:41:45;;;;;;;16.55;3.47;;;5.90;99.90;;;;;;5091967;27;20043;-83
2023/01/31 06:44:11;;;;;;;25.75;3.85;;;5.90;99.90;;;;;;5110476;27;20076;-83
2023/01/31 06:46:37;;;;;;;27.33;3.10;;;5.90;99.90;;;;;;5110560;27;20096;-82
2023/01/31 06:49:03;;;;;;;27.38;4.43;;;6.50;99.90;;;;;;5114590;27;20100;-83
2023/01/31 06:51:29;;;;;;;19.88;4.15;;;5.00;99.90;;;;;;5115300;27;20103;-83
2023/01/31 06:53:55;;;;;;;28.85;4.15;;;5.90;99.90;;;;;;5094439;27;20545;-83
2023/01/31 06:56:21;;;;;;;20.02;3.17;;;7.10;99.90;;;;;;5111297;27;20046;-83
2023/01/31 06:58:46;;;;;;;20.25;3.70;;;5.90;99.90;;;;;;5109073;27;20035;-82
2023/01/31 07:01:13;;;;;;;23.33;3.15;;;5.90;99.90;;;;;;5093076;27;20111;-83
2023/01/31 07:03:39;;;;;;;19.75;3.42;;;6.80;99.90;;;;;;5091303;27;20122;-82
2023/01/31 07:06:06;;;;;;;20.60;3.88;;;5.90;99.90;;;;;;5075178;27;20043;-82
2023/01/31 07:08:32;;;;;;;24.02;3.97;;;5.90;99.90;;;;;;5092124;27;20478;-83
2023/01/31 07:11:00;;;;;;;24.75;3.20;;;6.30;99.90;;;;;;5091257;27;20047;-83
2023/01/31 07:13:27;;;;;;;25.23;3.45;;;7.10;99.90;;;;;;5109355;27;20047;-82
2023/01/31 07:15:54;;;;;;;22.35;3.13;;;5.90;99.90;;;;;;5107771;27;20104;-82
2023/01/31 07:18:19;;;;;;;21.80;3.47;;;6.00;99.90;;;;;;5109438;27;20047;-84
2023/01/31 07:20:45;;;;;;;28.45;3.35;;;6.50;99.90;;;;;;5074668;27;20046;-83
2023/01/31 07:23:11;;;;;;;24.27;3.55;;;6.30;99.90;;;;;;5075210;27;20216;-85
2023/01/31 07:25:37;;;;;;;14.43;4.18;;;7.10;99.90;;;;;;5075145;27;20061;-85
2023/01/31 07:28:03;;;;;;;19.50;2.65;;;6.50;99.90;;;;;;5090742;27;20047;-83
2023/01/31 07:30:29;;;;;;;16.88;3.20;;;6.00;99.90;;;;;;5092055;27;20539;-83
2023/01/31 07:32:55;;;;;;;26.33;4.47;;;6.00;99.90;;;;;;5107783;27;20035;-83
2023/01/31 07:35:20;;;;;;;24.10;3.70;;;6.00;99.90;;;;;;5092436;27;20096;-83
2023/01/31 07:37:46;;;;;;;31.95;4.53;;;7.30;99.90;;;;;;5074362;27;20432;-83
2023/01/31 07:40:14;;;;;;;20.35;3.75;;;6.10;99.90;;;;;;5074621;27;20045;-83
2023/01/31 07:42:40;;;;;;;19.42;3.13;;;6.10;99.90;;;;;;5108461;27;20044;-83
2023/01/31 07:45:10;;;;;;;14.20;2.40;;;5.30;99.90;;;;;;5090545;27;20096;-84
2023/01/31 07:47:35;;;;;;;18.40;2.53;;;6.10;99.90;;;;;;5091746;27;20039;-83
2023/01/31 07:50:01;;;;;;;21.58;3.05;;;7.40;99.90;;;;;;5106910;27;20115;-83
2023/01/31 07:52:27;;;;;;;15.20;3.00;;;6.90;99.90;;;;;;5108531;27;20031;-83
2023/01/31 07:54:55;;;;;;;25.73;3.42;;;6.20;99.90;;;;;;5091056;27;20047;-83
2023/01/31 07:57:21;;;;;;;21.98;3.72;;;6.20;99.90;;;;;;5108012;27;20070;-83
2023/01/31 07:59:47;;;;;;;21.67;2.85;;;7.40;99.90;;;;;;5098155;27;20481;-83
2023/01/31 08:05:00;;;;;;;23.85;2.80;;;6.20;99.90;;;;;;5107179;27;20055;-84
2023/01/31 08:07:27;;;;;;;17.00;2.13;;;6.20;99.90;;;;;;5118765;27;20057;-83
2023/01/31 08:09:53;;;;;;;16.10;2.05;;;7.50;99.90;;;;;;5120591;27;20131;-84
2023/01/31 08:12:19;;;;;;;16.75;2.38;;;6.20;99.90;;;;;;5101747;27;20031;-84
2023/01/31 08:14:45;;;;;;;13.88;2.63;;;6.30;99.90;;;;;;5117771;27;20043;-85
2023/01/31 08:17:11;;;;;;;18.30;4.20;;;6.60;99.90;;;;;;5115189;27;20050;-83
2023/01/31 08:19:37;;;;;;;23.98;3.17;;;6.30;99.90;;;;;;5114844;27;20054;-83
2023/01/31 08:22:03;;;;;;;24.75;2.33;;;6.30;99.90;;;;;;5114741;27;20039;-84
2023/01/31 08:24:30;;;;;;;12.52;1.88;;;7.60;99.90;;;;;;5113036;27;20058;-83
2023/01/31 08:26:56;;;;;;;14.40;3.00;;;7.60;99.90;;;;;;5112281;27;20086;-84
2023/01/31 08:29:23;;;;;;;7.72;1.45;;;7.10;99.90;;;;;;5094975;27;20058;-83
2023/01/31 08:31:49;;;;;;;16.20;1.95;;;6.40;99.90;;;;;;5111953;27;20043;-83
2023/01/31 08:34:15;;;;;;;11.15;2.60;;;7.60;99.90;;;;;;5111924;27;20051;-83
2023/01/31 08:36:42;;;;;;;20.70;2.55;;;6.60;99.90;;;;;;5130310;27;20147;-83
2023/01/31 08:39:07;;;;;;;16.25;2.10;;;6.40;99.90;;;;;;5130946;27;20050;-82
2023/01/31 08:41:35;;;;;;;15.85;3.33;;;6.40;99.90;;;;;;5130151;27;20038;-83
2023/01/31 08:44:02;;;;;;;12.60;2.75;;;7.00;99.90;;;;;;5112229;27;20043;-83
2023/01/31 08:46:31;;;;;;;15.07;1.95;;;7.30;99.90;;;;;;5111986;27;20393;-84
2023/01/31 08:48:57;;;;;;;16.70;1.67;;;6.80;99.90;;;;;;5111665;27;20526;-83
2023/01/31 08:51:23;;;;;;;20.30;2.50;;;6.50;99.90;;;;;;5111435;28;20061;-84
2023/01/31 08:53:49;;;;;;;16.83;2.50;;;6.50;99.90;;;;;;5077910;27;20434;-83
2023/01/31 08:56:15;;;;;;;14.07;2.65;;;7.20;99.90;;;;;;5095195;28;20136;-84
2023/01/31 08:58:43;;;;;;;19.33;4.30;;;6.60;99.90;;;;;;5130277;27;20389;-84
2023/01/31 09:01:11;;;;;;;18.27;2.17;;;7.50;99.90;;;;;;5112426;28;20429;-83
2023/01/31 09:03:37;;;;;;;23.25;3.10;;;7.30;99.90;;;;;;5111749;28;20068;-83
2023/01/31 09:06:07;;;;;;;23.33;2.50;;;7.90;99.90;;;;;;5112468;28;20104;-83
2023/01/31 09:08:33;;;;;;;12.13;2.65;;;8.10;99.90;;;;;;5129995;28;20045;-84
2023/01/31 09:10:59;;;;;;;20.95;3.00;;;7.20;99.90;;;;;;5111662;28;20114;-83
2023/01/31 09:13:26;;;;;;;17.23;2.40;;;6.80;99.90;;;;;;5111655;28;20039;-83
2023/01/31 09:16:00;;;;;;;18.52;2.30;;;8.10;99.90;;;;;;5130154;28;20094;-84
2023/01/31 09:18:26;;;;;;;19.42;2.35;;;7.30;99.90;;;;;;5111681;28;20065;-84
2023/01/31 09:20:52;;;;;;;19.48;3.15;;;6.80;99.90;;;;;;5111103;28;20047;-84
2023/01/31 09:23:18;;;;;;;13.80;2.10;;;6.80;99.90;;;;;;5077989;28;20046;-84
2023/01/31 09:25:52;;;;;;;28.35;2.60;;;6.80;99.90;;;;;;5095984;27;20055;-84
2023/01/31 09:28:18;;;;;;;22.27;2.95;;;6.80;99.90;;;;;;5098533;27;20397;-83
2023/01/31 09:30:43;;;;;;;20.52;3.17;;;6.80;99.90;;;;;;5115872;27;20054;-84
2023/01/31 09:33:09;;;;;;;9.60;1.75;;;8.10;99.90;;;;;;5115268;27;20051;-84
2023/01/31 09:35:35;;;;;;;26.77;2.92;;;7.20;99.90;;;;;;5098540;27;20045;-83
2023/01/31 09:38:00;;;;;;;21.13;3.95;;;6.90;99.90;;;;;;5098853;27;20055;-84
2023/01/31 09:40:32;;;;;;;19.52;3.08;;;7.80;99.90;;;;;;5134033;27;20100;-83
2023/01/31 09:43:01;;;;;;;22.38;2.67;;;6.90;99.90;;;;;;5115304;27;20047;-83
2023/01/31 09:45:30;;;;;;;23.75;3.42;;;6.90;99.90;;;;;;5098327;27;20374;-83
2023/01/31 09:47:58;;;;;;;18.35;2.47;;;6.90;99.90;;;;;;5115783;27;20050;-84
2023/01/31 09:50:45;;;;;;;15.90;2.50;;;6.90;99.90;;;;;;5114867;27;20039;-84
2023/01/31 09:53:22;;;;;;;23.13;2.70;;;6.90;99.90;;;;;;5115163;27;20100;-83
2023/01/31 09:56:21;;;;;;;21.58;2.95;;;6.90;99.90;;;;;;5098423;27;20069;-83
2023/01/31 09:58:57;;;;;;;19.10;2.88;;;6.90;99.90;;;;;;5097972;27;20050;-84
2023/01/31 10:01:59;;;;;;;14.70;2.28;;;7.70;99.90;;;;;;5114778;27;20117;-84
2023/01/31 10:04:58;;;;;;;19.23;2.80;;;7.00;99.90;;;;;;5133526;27;20066;-84
2023/01/31 10:07:37;;;;;;;22.15;3.60;;;7.00;99.90;;;;;;5097565;27;20071;-83
2023/01/31 10:10:27;;;;;;;19.05;3.33;;;7.00;99.90;;;;;;5114651;27;20121;-84
2023/01/31 10:13:02;;;;;;;20.73;2.80;;;7.00;99.90;;;;;;5097916;27;20353;-83
2023/01/31 10:15:39;;;;;;;22.23;2.38;;;7.20;99.90;;;;;;5114830;27;20405;-84
2023/01/31 10:18:10;;;;;;;20.40;3.28;;;7.00;99.90;;;;;;5115088;27;20050;-84
2023/01/31 10:20:48;;;;;;;9.43;1.63;;;7.00;99.90;;;;;;5097885;27;20039;-84
2023/01/31 10:23:28;;;;;;;23.45;2.70;;;7.00;99.90;;;;;;5114302;27;20129;-84
2023/01/31 10:26:01;;;;;;;22.25;2.88;;;7.00;99.90;;;;;;5113834;27;20051;-84
2023/01/31 10:28:41;;;;;;;20.50;2.60;;;7.00;99.90;;;;;;5113351;27;20491;-83
2023/01/31 10:31:49;;;;;;;19.85;2.03;;;7.00;99.90;;;;;;5096192;27;20043;-83
2023/01/31 10:34:24;;;;;;;13.65;2.33;;;7.70;99.90;;;;;;5118178;27;20043;-83
2023/01/31 10:37:05;;;;;;;20.25;2.35;;;7.00;99.90;;;;;;5112102;28;20500;-83
2023/01/31 10:39:32;;;;;;;18.60;2.85;;;8.30;99.90;;;;;;5113247;27;20135;-83
2023/01/31 10:42:16;;;;;;;16.42;2.13;;;7.80;99.90;;;;;;5113117;27;20078;-83
2023/01/31 10:44:52;;;;;;;21.48;2.67;;;6.90;99.90;;;;;;5131130;27;20121;-83
2023/01/31 10:47:28;;;;;;;17.98;3.80;;;7.10;99.90;;;;;;5113283;27;20102;-82
2023/01/31 10:49:55;;;;;;;15.45;1.85;;;7.90;99.90;;;;;;5113081;27;20038;-83
2023/01/31 10:52:44;;;;;;;23.50;2.88;;;7.00;99.90;;;;;;5113040;27;20054;-82
2023/01/31 10:55:47;;;;;;;12.40;2.85;;;7.00;99.90;;;;;;5131830;27;20092;-82
2023/01/31 10:58:16;;;;;;;18.13;2.40;;;7.00;99.90;;;;;;5112079;27;20301;-83
2023/01/31 11:00:43;;;;;;;11.25;2.53;;;7.00;99.90;;;;;;5113636;27;20500;-82
2023/01/31 11:03:13;;;;;;;12.52;2.00;;;7.10;99.90;;;;;;5112681;27;20082;-83
2023/01/31 11:05:51;;;;;;;16.05;2.47;;;7.00;99.90;;;;;;5112182;27;20051;-84
2023/01/31 11:08:32;;;;;;;20.17;2.35;;;7.10;99.90;;;;;;5113400;27;20134;-83
2023/01/31 11:11:11;;;;;;;18.55;2.33;;;7.10;99.90;;;;;;5112514;27;20071;-83
2023/01/31 11:13:37;;;;;;;23.85;2.90;;;7.10;99.90;;;;;;5113535;27;20060;-83
2023/01/31 11:16:07;;;;;;;21.75;2.97;;;7.70;99.90;;;;;;5113008;27;20043;-83
2023/01/31 11:18:46;;;;;;;19.77;2.40;;;7.10;99.90;;;;;;5095032;27;20435;-83
2023/01/31 11:21:37;;;;;;;17.00;3.33;;;7.10;99.90;;;;;;5112826;27;20042;-83
2023/01/31 11:24:06;;;;;;;20.25;3.17;;;7.10;99.90;;;;;;5094734;27;20478;-83
2023/01/31 11:26:51;;;;;;;21.67;2.53;;;7.10;99.90;;;;;;5095964;27;20047;-83
2023/01/31 11:29:24;;;;;;;20.63;3.25;;;7.10;99.90;;;;;;5095299;27;20187;-83
2023/01/31 11:31:51;;;;;;;19.08;2.80;;;8.00;99.90;;;;;;5112412;27;20047;-83
2023/01/31 11:34:25;;;;;;;21.80;2.75;;;7.40;99.90;;;;;;5114760;27;20054;-84
2023/01/31 11:36:51;;;;;;;30.50;2.95;;;7.10;99.90;;;;;;5119573;27;20047;-83
2023/01/31 11:39:38;;;;;;;23.73;2.70;;;7.20;99.90;;;;;;5120679;27;20043;-83
2023/01/31 11:42:15;;;;;;;17.35;2.30;;;7.30;99.90;;;;;;5135148;27;20039;-83
2023/01/31 11:44:55;;;;;;;20.30;2.50;;;7.50;99.90;;;;;;5113136;27;20411;-84
2023/01/31 11:47:37;;;;;;;24.52;2.80;;;7.30;99.90;;;;;;5114133;27;20046;-84
2023/01/31 11:50:04;;;;;;;22.23;3.10;;;8.30;99.90;;;;;;5093931;27;20393;-83
2023/01/31 11:52:32;;;;;;;28.10;4.25;;;7.40;99.90;;;;;;5111883;27;20087;-83
2023/01/31 11:55:15;;;;;;;26.40;2.72;;;7.40;99.90;;;;;;5094880;27;20629;-83
2023/01/31 11:57:41;;;;;;;14.32;2.30;;;8.40;99.90;;;;;;5111240;27;20594;-83
2023/01/31 12:00:31;;;;;;;21.20;4.07;;;8.80;99.90;;;;;;5095406;27;20069;-83
2023/01/31 12:03:06;;;;;;;23.55;3.58;;;7.50;99.90;;;;;;5111183;27;20054;-83
2023/01/31 12:05:45;;;;;;;22.98;2.13;;;7.50;99.90;;;;;;5111505;27;20047;-84
2023/01/31 12:08:30;;;;;;;26.95;3.75;;;7.60;99.90;;;;;;5111802;27;20043;-84
2023/01/31 12:10:57;;;;;;;20.90;3.17;;;7.80;99.90;;;;;;5110626;27;20043;-83
2023/01/31 12:13:23;;;;;;;21.13;2.78;;;8.60;99.90;;;;;;5078108;27;20050;-83
2023/01/31 12:15:59;;;;;;;23.85;3.90;;;7.70;99.90;;;;;;5110958;27;20039;-83
2023/01/31 12:18:37;;;;;;;16.02;2.72;;;8.00;99.90;;;;;;5129864;27;20051;-84
2023/01/31 12:21:06;;;;;;;17.98;3.42;;;7.80;99.90;;;;;;5129789;27;20545;-83
2023/01/31 12:23:42;;;;;;;21.67;2.45;;;7.80;99.90;;;;;;5110399;27;20054;-83
2023/01/31 12:26:15;;;;;;;24.48;2.60;;;7.90;99.90;;;;;;5111616;27;20065;-83
2023/01/31 12:28:54;;;;;;;16.80;2.47;;;8.00;99.90;;;;;;5110769;27;20485;-82
2023/01/31 12:31:35;;;;;;;20.73;2.83;;;8.00;99.90;;;;;;5110496;27;20111;-83
2023/01/31 12:34:12;;;;;;;17.50;2.75;;;8.70;99.90;;;;;;5094141;27;20089;-83
2023/01/31 12:37:06;;;;;;;17.52;2.22;;;8.10;99.90;;;;;;5093282;27;20035;-83
2023/01/31 12:39:53;;;;;;;19.67;3.83;;;8.20;99.90;;;;;;5111515;27;20384;-82
2023/01/31 12:42:39;;;;;;;17.10;2.30;;;8.20;99.90;;;;;;5110160;27;20050;-82
2023/01/31 12:45:20;;;;;;;14.73;2.05;;;8.20;99.90;;;;;;5109997;27;20485;-83
2023/01/31 12:48:21;;;;;;;22.23;2.17;;;8.20;99.90;;;;;;5111093;27;20457;-83
2023/01/31 12:51:23;;;;;;;20.10;3.42;;;8.20;99.90;;;;;;5110354;27;20053;-82
2023/01/31 12:54:12;;;;;;;26.90;2.90;;;8.30;99.90;;;;;;5076915;27;20066;-82
2023/01/31 12:56:58;;;;;;;17.15;2.55;;;8.30;99.90;;;;;;5110732;28;20043;-82
2023/01/31 12:59:51;;;;;;;20.63;3.97;;;8.30;99.90;;;;;;5109520;28;20055;-83
2023/01/31 13:02:35;;;;;;;15.50;2.97;;;8.40;99.90;;;;;;5109963;28;20051;-81
2023/01/31 13:05:06;;;;;;;17.70;2.90;;;8.50;99.90;;;;;;5094248;28;20051;-81
2023/01/31 13:07:46;;;;;;;16.08;2.15;;;8.50;99.90;;;;;;5110464;28;20055;-82
2023/01/31 13:10:50;;;;;;;24.85;4.18;;;9.30;99.90;;;;;;5110128;28;20417;-81
2023/01/31 13:13:21;;;;;;;;;;;8.50;99.90;;;;;;5095866;28;20137;-80
2023/01/31 13:15:54;;;;;;;10.63;1.60;;;8.80;99.90;;;;;;5110667;28;20306;-80
2023/01/31 13:18:22;;;;;;;22.67;2.80;;;8.50;99.90;;;;;;5129193;28;20043;-80
2023/01/31 13:20:59;;;;;;;13.90;2.50;;;8.90;99.90;;;;;;5110972;28;20069;-81
2023/01/31 13:23:33;;;;;;;24.17;2.20;;;8.60;99.90;;;;;;5093459;28;20104;-81